Time;durP1;ratioP1;P1;durP2;ratioP2;P2;SDS_P1;SDS_P2;PMS_P1;PMS_P2;Temp;Humidity;BMP_temperature;BMP_pressure;BME280_temperature;BME280_humidity;BME280_pressure;Samples;Min_cycle;Max_cycle;Signal;HPM_P1;HPM_P2
2023/08/15 00:01:50;;;;;;;7.03;6.23;;;21.70;99.90;;;;;;5093567;28;20669;-71
2023/08/15 00:04:16;;;;;;;6.90;6.23;;;21.70;99.90;;;;;;5096027;28;20674;-70
2023/08/15 00:06:43;;;;;;;14.13;6.73;;;21.80;99.90;;;;;;5088861;28;20666;-71
2023/08/15 00:09:10;;;;;;;6.97;6.37;;;21.80;99.90;;;;;;5087842;28;20616;-71
2023/08/15 00:11:38;;;;;;;10.33;6.23;;;21.80;99.90;;;;;;5089241;28;20658;-71
2023/08/15 00:14:05;;;;;;;6.97;6.27;;;21.70;99.90;;;;;;5087689;28;21419;-71
2023/08/15 00:16:32;;;;;;;7.40;6.60;;;21.80;99.90;;;;;;5088850;28;20645;-71
2023/08/15 00:18:59;;;;;;;7.00;6.10;;;21.70;99.90;;;;;;5102606;28;20625;-71
2023/08/15 00:21:25;;;;;;;6.37;5.73;;;21.70;99.90;;;;;;5087027;28;20751;-71
2023/08/15 00:23:52;;;;;;;9.27;7.03;;;21.70;99.90;;;;;;5101484;28;20633;-71
2023/08/15 00:26:19;;;;;;;7.20;6.50;;;21.70;99.90;;;;;;5090330;28;21075;-71
2023/08/15 00:28:47;;;;;;;7.73;6.83;;;21.70;99.90;;;;;;5095804;28;20979;-71
2023/08/15 00:31:14;;;;;;;6.53;5.93;;;21.80;99.90;;;;;;5097127;28;20988;-71
2023/08/15 00:33:40;;;;;;;6.53;5.93;;;21.90;99.90;;;;;;5095113;28;20973;-71
2023/08/15 00:36:08;;;;;;;7.80;7.10;;;21.90;99.90;;;;;;5087739;28;21008;-71
2023/08/15 00:38:35;;;;;;;6.27;5.70;;;21.90;99.90;;;;;;5092906;28;20626;-71
2023/08/15 00:41:02;;;;;;;6.90;6.20;;;21.90;99.90;;;;;;5095544;28;20648;-71
2023/08/15 00:43:28;;;;;;;6.67;5.70;;;21.90;99.90;;;;;;5092066;28;20627;-71
2023/08/15 00:45:56;;;;;;;7.27;6.07;;;21.90;99.90;;;;;;5090409;28;20657;-71
2023/08/15 00:48:29;;;;;;;6.33;5.70;;;21.80;99.90;;;;;;5095033;28;20980;-71
2023/08/15 00:50:57;;;;;;;6.77;6.20;;;21.80;99.90;;;;;;5096367;28;20634;-71
2023/08/15 00:53:24;;;;;;;6.83;5.67;;;21.70;99.90;;;;;;5092951;28;20627;-71
2023/08/15 00:55:53;;;;;;;6.90;6.30;;;21.60;99.90;;;;;;5088270;28;20639;-71
2023/08/15 00:58:21;;;;;;;6.13;5.53;;;21.60;99.90;;;;;;5097885;28;20641;-71
2023/08/15 01:00:48;;;;;;;5.80;5.23;;;21.60;99.90;;;;;;5088146;28;20677;-71
2023/08/15 01:03:16;;;;;;;6.23;5.63;;;21.60;99.90;;;;;;5100495;28;20715;-71
2023/08/15 01:05:44;;;;;;;6.07;5.57;;;21.50;99.90;;;;;;5090968;28;21222;-71
2023/08/15 01:08:12;;;;;;;6.47;5.87;;;21.50;99.90;;;;;;5079643;28;20743;-71
2023/08/15 01:10:40;;;;;;;6.27;5.67;;;21.40;99.90;;;;;;5099412;28;20700;-71
2023/08/15 01:13:14;;;;;;;5.70;5.03;;;21.40;99.90;;;;;;5090503;28;20632;-71
2023/08/15 01:15:47;;;;;;;6.90;6.27;;;21.40;99.90;;;;;;5091537;28;21252;-71
2023/08/15 01:18:21;;;;;;;6.97;6.27;;;21.30;99.90;;;;;;5097186;28;20649;-71
2023/08/15 01:20:50;;;;;;;6.37;5.27;;;21.40;99.90;;;;;;5092395;28;20637;-71
2023/08/15 01:23:25;;;;;;;7.40;5.70;;;21.50;99.90;;;;;;5099445;28;20666;-71
2023/08/15 01:25:55;;;;;;;5.60;5.10;;;21.50;99.90;;;;;;5087659;28;20753;-71
2023/08/15 01:28:23;;;;;;;6.10;5.60;;;21.50;99.90;;;;;;5096160;28;20997;-71
2023/08/15 01:30:59;;;;;;;6.03;5.50;;;21.50;99.90;;;;;;5090761;28;20639;-71
2023/08/15 01:33:33;;;;;;;6.93;6.27;;;21.40;99.90;;;;;;5101514;28;20635;-71
2023/08/15 01:36:05;;;;;;;7.00;6.30;;;21.20;99.90;;;;;;5096471;28;20645;-70
2023/08/15 01:38:39;;;;;;;6.70;6.10;;;21.10;99.90;;;;;;5098316;28;20703;-71
2023/08/15 01:41:13;;;;;;;7.23;6.50;;;21.20;99.90;;;;;;5091301;28;20660;-71
2023/08/15 01:43:43;;;;;;;7.00;6.30;;;21.30;99.90;;;;;;5099608;28;20720;-71
2023/08/15 01:46:12;;;;;;;6.30;5.70;;;21.30;99.90;;;;;;5096847;28;20636;-71
2023/08/15 01:48:41;;;;;;;7.17;5.70;;;21.30;99.90;;;;;;5092190;28;20742;-71
2023/08/15 01:51:09;;;;;;;5.70;5.10;;;21.30;99.90;;;;;;5098236;28;20840;-71
2023/08/15 01:53:38;;;;;;;6.97;6.20;;;21.30;99.90;;;;;;5100275;28;20628;-71
2023/08/15 01:56:06;;;;;;;6.30;5.63;;;21.30;99.90;;;;;;5095812;28;21076;-71
2023/08/15 01:58:35;;;;;;;6.57;5.93;;;21.30;99.90;;;;;;5100878;28;20630;-71
2023/08/15 02:01:04;;;;;;;6.27;5.77;;;21.30;99.90;;;;;;5091234;28;20641;-71
2023/08/15 02:03:31;;;;;;;8.00;7.20;;;21.30;99.90;;;;;;5094324;28;20987;-71
2023/08/15 02:05:59;;;;;;;7.27;6.53;;;21.30;99.90;;;;;;5093334;28;21506;-71
2023/08/15 02:08:26;;;;;;;7.90;7.10;;;21.40;99.90;;;;;;5090839;28;20647;-70
2023/08/15 02:10:53;;;;;;;6.67;6.07;;;21.40;99.90;;;;;;5090715;28;20634;-71
2023/08/15 02:13:20;;;;;;;6.30;5.70;;;21.40;99.90;;;;;;5099975;28;20628;-70
2023/08/15 02:15:48;;;;;;;7.30;6.57;;;21.40;99.90;;;;;;5092732;28;20983;-71
2023/08/15 02:18:15;;;;;;;7.53;6.80;;;21.40;99.90;;;;;;5102712;28;20624;-71
2023/08/15 02:20:42;;;;;;;7.10;6.03;;;21.40;99.90;;;;;;5101416;28;20698;-71
2023/08/15 02:23:11;;;;;;;7.73;6.97;;;21.40;99.90;;;;;;5101602;28;20627;-71
2023/08/15 02:25:38;;;;;;;8.43;6.23;;;21.40;99.90;;;;;;5102376;28;20637;-71
2023/08/15 02:28:07;;;;;;;8.23;7.37;;;21.40;99.90;;;;;;5094506;28;20661;-71
2023/08/15 02:30:37;;;;;;;8.10;6.73;;;21.40;99.90;;;;;;5083737;28;20637;-71
2023/08/15 02:33:06;;;;;;;7.30;6.60;;;21.40;99.90;;;;;;5090685;28;20622;-71
2023/08/15 02:35:34;;;;;;;8.90;8.00;;;21.30;99.90;;;;;;5097303;28;20642;-71
2023/08/15 02:38:02;;;;;;;6.87;6.20;;;21.30;99.90;;;;;;5093963;28;20610;-71
2023/08/15 02:40:29;;;;;;;6.70;6.17;;;21.20;99.90;;;;;;5099233;28;20648;-71
2023/08/15 02:42:56;;;;;;;8.63;7.23;;;21.10;99.90;;;;;;5090637;28;20614;-71
2023/08/15 02:45:24;;;;;;;7.37;6.77;;;21.10;99.90;;;;;;5092572;28;20646;-71
2023/08/15 02:47:52;;;;;;;6.60;6.00;;;21.10;99.90;;;;;;5088622;28;20683;-71
2023/08/15 02:50:21;;;;;;;7.20;6.60;;;21.10;99.90;;;;;;5090130;28;20626;-72
2023/08/15 02:52:48;;;;;;;7.03;6.33;;;21.20;99.90;;;;;;5102000;28;21191;-71
2023/08/15 02:55:17;;;;;;;7.60;6.90;;;21.30;99.90;;;;;;5096570;28;20630;-71
2023/08/15 02:57:45;;;;;;;7.63;6.93;;;21.40;99.90;;;;;;5099150;28;20626;-71
2023/08/15 03:00:13;;;;;;;6.57;6.07;;;21.40;99.90;;;;;;5098494;28;20638;-71
2023/08/15 03:02:41;;;;;;;8.80;7.47;;;21.40;99.90;;;;;;5099305;28;21059;-71
2023/08/15 03:05:09;;;;;;;7.90;7.00;;;21.40;99.90;;;;;;5098561;28;20636;-71
2023/08/15 03:07:38;;;;;;;7.40;6.70;;;21.30;99.90;;;;;;5095712;28;20647;-71
2023/08/15 03:10:07;;;;;;;6.93;6.30;;;21.20;99.90;;;;;;5097949;28;21035;-71
2023/08/15 03:12:34;;;;;;;7.30;6.47;;;21.10;99.90;;;;;;5092969;28;21039;-71
2023/08/15 03:15:01;;;;;;;6.57;5.97;;;21.20;99.90;;;;;;5098399;28;20652;-71
2023/08/15 03:17:28;;;;;;;6.50;6.00;;;21.30;99.90;;;;;;5094036;28;20673;-71
2023/08/15 03:19:55;;;;;;;7.77;6.47;;;21.30;99.90;;;;;;5101412;28;20650;-71
2023/08/15 03:22:22;;;;;;;7.27;6.30;;;21.30;99.90;;;;;;5090206;28;20645;-71
2023/08/15 03:24:50;;;;;;;6.50;5.87;;;21.20;99.90;;;;;;5098734;28;20620;-71
2023/08/15 03:27:17;;;;;;;7.70;7.00;;;21.20;99.90;;;;;;5092221;28;21283;-71
2023/08/15 03:29:44;;;;;;;6.00;5.50;;;21.00;99.90;;;;;;5092143;28;20643;-71
2023/08/15 03:32:10;;;;;;;7.33;6.47;;;21.00;99.90;;;;;;5089507;28;21157;-71
2023/08/15 03:34:37;;;;;;;6.57;5.90;;;21.00;99.90;;;;;;5083933;28;20703;-71
2023/08/15 03:37:04;;;;;;;6.00;5.40;;;21.00;99.90;;;;;;5089622;28;20736;-71
2023/08/15 03:39:31;;;;;;;6.50;5.67;;;20.90;99.90;;;;;;5097062;28;20649;-71
2023/08/15 03:41:59;;;;;;;9.13;6.00;;;20.80;99.90;;;;;;5095017;28;20647;-71
2023/08/15 03:44:26;;;;;;;6.40;5.80;;;20.80;99.90;;;;;;5092439;28;20655;-71
2023/08/15 03:46:52;;;;;;;7.03;6.33;;;20.80;99.90;;;;;;5088972;28;20650;-71
2023/08/15 03:49:19;;;;;;;7.17;6.47;;;20.80;99.90;;;;;;5088776;28;20670;-71
2023/08/15 03:51:46;;;;;;;6.87;6.27;;;20.80;99.90;;;;;;5099941;28;20647;-71
2023/08/15 03:54:13;;;;;;;6.70;6.17;;;20.90;99.90;;;;;;5092049;28;20632;-71
2023/08/15 03:56:39;;;;;;;7.13;6.43;;;20.80;99.90;;;;;;5087720;28;20648;-71
2023/08/15 03:59:08;;;;;;;6.90;6.20;;;20.90;99.90;;;;;;5092814;28;20623;-71
2023/08/15 04:01:34;;;;;;;7.37;6.20;;;20.90;99.90;;;;;;5100959;28;20677;-71
2023/08/15 04:04:03;;;;;;;5.67;5.17;;;20.90;99.90;;;;;;5089309;28;20633;-71
2023/08/15 04:06:30;;;;;;;7.03;6.33;;;20.80;99.90;;;;;;5091341;28;20754;-71
2023/08/15 04:08:57;;;;;;;7.80;7.00;;;20.80;99.90;;;;;;5088629;28;20664;-71
2023/08/15 04:11:24;;;;;;;7.00;6.33;;;20.80;99.90;;;;;;5088875;28;20643;-71
2023/08/15 04:13:50;;;;;;;6.70;6.10;;;20.80;99.90;;;;;;5091044;28;20631;-72
2023/08/15 04:16:18;;;;;;;7.30;6.63;;;20.70;99.90;;;;;;5090778;28;21033;-72
2023/08/15 04:18:45;;;;;;;9.30;7.13;;;20.60;99.90;;;;;;5083949;28;20620;-72
2023/08/15 04:21:13;;;;;;;6.73;6.17;;;20.50;99.90;;;;;;5095280;28;20655;-72
2023/08/15 04:23:39;;;;;;;6.33;5.73;;;20.50;99.90;;;;;;5089025;28;20632;-72
2023/08/15 04:26:06;;;;;;;6.93;6.33;;;20.50;99.90;;;;;;5088973;28;20644;-72
2023/08/15 04:28:33;;;;;;;7.47;6.70;;;20.40;99.90;;;;;;5089492;28;20659;-72
2023/08/15 04:31:00;;;;;;;7.07;6.47;;;20.40;99.90;;;;;;5085396;28;20742;-72
2023/08/15 04:33:28;;;;;;;8.47;6.50;;;20.40;99.90;;;;;;5089898;28;20640;-72
2023/08/15 04:35:54;;;;;;;7.37;6.43;;;20.40;99.90;;;;;;5088297;28;20656;-72
2023/08/15 04:38:21;;;;;;;7.20;6.50;;;20.50;99.90;;;;;;5088634;28;20674;-72
2023/08/15 04:40:48;;;;;;;6.83;5.80;;;20.40;99.90;;;;;;5092475;28;20642;-72
2023/08/15 04:43:16;;;;;;;7.80;6.20;;;20.30;99.90;;;;;;5089610;28;20663;-72
2023/08/15 04:45:43;;;;;;;6.87;6.27;;;20.40;99.90;;;;;;5099495;28;21207;-74
2023/08/15 04:48:11;;;;;;;9.27;6.30;;;20.40;99.90;;;;;;5101731;28;21068;-73
2023/08/15 04:50:39;;;;;;;5.90;5.40;;;20.30;99.90;;;;;;5095422;28;20646;-76
2023/08/15 04:53:06;;;;;;;7.50;6.60;;;20.30;99.90;;;;;;5089862;28;20637;-75
2023/08/15 04:55:33;;;;;;;7.97;7.27;;;20.40;99.90;;;;;;5091858;28;20647;-75
2023/08/15 04:58:00;;;;;;;9.13;6.53;;;20.40;99.90;;;;;;5087536;28;20619;-75
2023/08/15 05:00:28;;;;;;;7.23;6.53;;;20.50;99.90;;;;;;5089371;28;20736;-74
2023/08/15 05:02:54;;;;;;;7.87;7.07;;;20.50;99.90;;;;;;5086474;28;20674;-74
2023/08/15 05:05:21;;;;;;;7.50;6.70;;;20.50;99.90;;;;;;5095628;28;20612;-74
2023/08/15 05:07:49;;;;;;;8.40;7.57;;;20.50;99.90;;;;;;5083106;28;20674;-75
2023/08/15 05:10:16;;;;;;;12.53;7.30;;;20.60;99.90;;;;;;5095100;28;21214;-75
2023/08/15 05:12:43;;;;;;;8.40;7.60;;;20.70;99.90;;;;;;5086976;28;20632;-74
2023/08/15 05:15:10;;;;;;;7.00;6.30;;;20.70;99.90;;;;;;5090136;28;20698;-73
2023/08/15 05:17:37;;;;;;;11.33;10.20;;;20.70;99.90;;;;;;5091507;28;20658;-72
2023/08/15 05:20:05;;;;;;;8.80;7.37;;;20.80;99.90;;;;;;5090650;28;20647;-72
2023/08/15 05:22:32;;;;;;;8.40;7.70;;;20.90;99.90;;;;;;5096858;28;20715;-72
2023/08/15 05:25:00;;;;;;;10.97;7.30;;;21.00;99.90;;;;;;5104072;28;20971;-72
2023/08/15 05:27:27;;;;;;;8.50;7.07;;;21.10;99.90;;;;;;5094417;28;20993;-72
2023/08/15 05:29:54;;;;;;;8.13;7.40;;;21.30;99.90;;;;;;5091527;28;20622;-72
2023/08/15 05:32:21;;;;;;;7.60;6.90;;;21.40;99.90;;;;;;5098495;28;20654;-74
2023/08/15 05:34:48;;;;;;;7.57;6.77;;;21.50;99.90;;;;;;5092283;28;20628;-74
2023/08/15 05:37:14;;;;;;;7.60;6.80;;;21.50;99.90;;;;;;5090856;28;20851;-73
2023/08/15 05:39:41;;;;;;;7.50;6.80;;;21.50;99.90;;;;;;5091206;28;20726;-73
2023/08/15 05:42:10;;;;;;;7.17;6.50;;;21.70;99.90;;;;;;5093998;28;20651;-74
2023/08/15 05:44:37;;;;;;;8.43;6.50;;;21.70;99.90;;;;;;5103044;28;20625;-74
2023/08/15 05:47:04;;;;;;;7.03;6.43;;;21.80;99.90;;;;;;5092521;28;20646;-73
2023/08/15 05:49:31;;;;;;;6.63;6.03;;;21.90;99.90;;;;;;5098725;28;21245;-74
2023/08/15 05:51:59;;;;;;;7.73;6.97;;;21.90;99.90;;;;;;5091465;28;21075;-74
2023/08/15 05:54:26;;;;;;;7.00;6.40;;;22.00;99.90;;;;;;5100367;28;20662;-74
2023/08/15 05:56:52;;;;;;;7.10;6.40;;;22.10;99.90;;;;;;5106173;28;21084;-72
2023/08/15 05:59:20;;;;;;;7.13;6.40;;;22.20;99.90;;;;;;5098669;28;21018;-73
2023/08/15 06:01:47;;;;;;;7.03;6.33;;;22.20;99.90;;;;;;5093914;28;20316;-74
2023/08/15 06:04:14;;;;;;;6.33;5.83;;;22.20;99.90;;;;;;5095990;28;20652;-73
2023/08/15 06:06:41;;;;;;;6.40;5.80;;;22.20;99.90;;;;;;5095014;28;20666;-73
2023/08/15 06:09:08;;;;;;;7.80;7.07;;;22.10;99.90;;;;;;5092674;28;20754;-73
2023/08/15 06:11:35;;;;;;;6.57;5.97;;;22.20;99.90;;;;;;5094800;28;20655;-73
2023/08/15 06:14:01;;;;;;;7.37;6.23;;;22.10;99.90;;;;;;5098359;28;20627;-73
2023/08/15 06:16:30;;;;;;;7.50;6.70;;;22.20;99.90;;;;;;5089771;28;20656;-71
2023/08/15 06:18:57;;;;;;;8.00;7.30;;;22.30;99.90;;;;;;5081073;28;20637;-71
2023/08/15 06:21:23;;;;;;;7.30;5.97;;;22.30;99.90;;;;;;5088897;28;20656;-71
2023/08/15 06:23:50;;;;;;;6.67;6.03;;;22.20;99.90;;;;;;5094571;28;20625;-71
2023/08/15 06:26:17;;;;;;;6.60;6.10;;;22.20;99.90;;;;;;5088461;28;20645;-71
2023/08/15 06:28:44;;;;;;;7.00;6.30;;;22.30;99.90;;;;;;5097932;28;20982;-71
2023/08/15 06:31:11;;;;;;;7.47;6.83;;;22.40;99.90;;;;;;5095726;28;20779;-71
2023/08/15 06:33:39;;;;;;;7.07;6.50;;;22.40;99.90;;;;;;5089953;28;20640;-71
2023/08/15 06:36:06;;;;;;;6.70;6.10;;;22.30;99.90;;;;;;5090436;28;20640;-71
2023/08/15 06:38:33;;;;;;;7.00;6.40;;;22.30;99.90;;;;;;5087806;28;20721;-71
2023/08/15 06:41:00;;;;;;;7.20;6.60;;;22.40;99.90;;;;;;5084691;28;20687;-71
2023/08/15 06:43:26;;;;;;;8.70;7.07;;;22.40;99.90;;;;;;5085036;28;20640;-71
2023/08/15 06:45:53;;;;;;;11.43;6.90;;;22.40;99.90;;;;;;5101392;28;20665;-71
2023/08/15 06:48:20;;;;;;;7.97;7.17;;;22.50;99.90;;;;;;5091650;28;20652;-71
2023/08/15 06:50:48;;;;;;;6.90;6.30;;;22.50;99.90;;;;;;5097046;28;20646;-71
2023/08/15 06:53:15;;;;;;;8.93;8.03;;;22.50;99.90;;;;;;5101609;28;20906;-71
2023/08/15 06:55:42;;;;;;;11.10;7.60;;;22.50;99.90;;;;;;5091615;28;20657;-71
2023/08/15 06:58:09;;;;;;;7.20;5.30;;;22.60;99.90;;;;;;5101532;28;20625;-71
2023/08/15 07:00:35;;;;;;;7.80;6.70;;;22.60;99.90;;;;;;5088944;28;20647;-71
2023/08/15 07:03:02;;;;;;;8.83;6.77;;;22.90;99.90;;;;;;5095199;28;20645;-71
2023/08/15 07:05:29;;;;;;;6.60;5.93;;;22.80;99.90;;;;;;5097852;28;20653;-71
2023/08/15 07:07:59;;;;;;;7.30;6.23;;;22.90;99.90;;;;;;5061496;28;1071740;-71
2023/08/15 07:10:26;;;;;;;7.43;6.83;;;22.90;99.90;;;;;;5101623;28;20231;-71
2023/08/15 07:12:52;;;;;;;5.80;5.30;;;22.90;99.90;;;;;;5091308;28;20654;-71
2023/08/15 07:15:19;;;;;;;7.33;5.63;;;22.90;99.90;;;;;;5090303;28;20709;-71
2023/08/15 07:17:46;;;;;;;7.47;5.60;;;23.20;99.90;;;;;;5098702;28;20710;-71
2023/08/15 07:20:14;;;;;;;6.13;5.53;;;23.40;99.90;;;;;;5091123;28;21182;-71
2023/08/15 07:22:41;;;;;;;6.40;5.80;;;23.50;99.90;;;;;;5098718;28;20710;-71
2023/08/15 07:25:10;;;;;;;6.27;5.67;;;23.80;99.90;;;;;;5090551;28;20616;-71
2023/08/15 07:27:37;;;;;;;7.40;5.43;;;24.00;99.90;;;;;;5091138;28;20628;-71
2023/08/15 07:30:05;;;;;;;6.03;4.93;;;24.00;99.90;;;;;;5104498;28;20666;-71
2023/08/15 07:32:32;;;;;;;6.13;5.53;;;24.10;99.90;;;;;;5100348;28;20618;-71
2023/08/15 07:34:59;;;;;;;6.60;5.87;;;24.30;99.90;;;;;;5103154;28;20967;-71
2023/08/15 07:37:26;;;;;;;6.27;5.77;;;24.40;99.90;;;;;;5093898;28;21215;-71
2023/08/15 07:39:57;;;;;;;7.60;6.97;;;24.50;99.90;;;;;;5094525;28;20646;-71
2023/08/15 07:42:26;;;;;;;5.60;5.07;;;24.70;99.90;;;;;;5101177;28;20645;-71
2023/08/15 07:44:53;;;;;;;7.17;5.57;;;24.90;99.90;;;;;;5089283;28;20722;-71
2023/08/15 07:47:20;;;;;;;5.70;5.23;;;24.90;99.90;;;;;;5094512;28;21242;-71
2023/08/15 07:49:46;;;;;;;6.43;5.93;;;25.10;99.90;;;;;;5091311;28;20667;-71
2023/08/15 07:52:13;;;;;;;5.37;4.87;;;25.50;99.90;;;;;;5101905;28;20948;-71
2023/08/15 07:54:43;;;;;;;5.37;4.90;;;25.70;99.90;;;;;;5100135;28;20625;-71
2023/08/15 07:57:10;;;;;;;6.53;5.07;;;25.80;99.90;;;;;;5099777;28;20655;-71
2023/08/15 07:59:38;;;;;;;5.77;5.27;;;25.90;99.90;;;;;;5096941;28;20723;-71
2023/08/15 08:02:06;;;;;;;5.00;4.60;;;25.70;99.90;;;;;;5080692;28;20644;-71
2023/08/15 08:04:33;;;;;;;6.43;5.83;;;25.50;99.90;;;;;;5092665;28;21035;-71
2023/08/15 08:07:00;;;;;;;5.07;4.60;;;25.60;99.90;;;;;;5097653;28;20660;-71
2023/08/15 08:09:27;;;;;;;5.53;4.83;;;25.60;99.90;;;;;;5091734;28;20652;-71
2023/08/15 08:11:53;;;;;;;7.73;5.70;;;25.60;99.90;;;;;;5099652;28;20639;-71
2023/08/15 08:14:20;;;;;;;6.53;5.93;;;25.90;99.90;;;;;;5088619;28;20632;-71
2023/08/15 08:16:48;;;;;;;6.00;5.50;;;26.00;99.90;;;;;;5088709;28;20637;-71
2023/08/15 08:19:15;;;;;;;6.43;5.17;;;26.10;99.90;;;;;;5096287;28;20629;-71
2023/08/15 08:21:42;;;;;;;6.97;5.90;;;26.20;99.90;;;;;;5097791;28;20661;-71
2023/08/15 08:24:09;;;;;;;5.90;5.20;;;26.20;99.90;;;;;;5096738;28;20631;-71
2023/08/15 08:26:35;;;;;;;8.03;5.43;;;26.10;99.90;;;;;;5091752;28;20652;-71
2023/08/15 08:29:02;;;;;;;5.50;5.00;;;26.20;99.90;;;;;;5096387;28;20653;-71
2023/08/15 08:31:29;;;;;;;7.67;5.67;;;26.10;99.90;;;;;;5098177;28;21085;-71
2023/08/15 08:33:57;;;;;;;5.27;4.77;;;26.00;99.90;;;;;;5089149;28;20724;-71
2023/08/15 08:36:24;;;;;;;5.60;5.10;;;26.00;99.90;;;;;;5088953;28;20777;-71
2023/08/15 08:38:51;;;;;;;5.33;4.70;;;26.10;99.90;;;;;;5095778;28;20618;-71
2023/08/15 08:41:17;;;;;;;5.50;5.00;;;26.10;99.90;;;;;;5085959;28;20645;-71
2023/08/15 08:43:45;;;;;;;6.50;5.80;;;26.20;99.90;;;;;;5100102;28;20621;-71
2023/08/15 08:46:13;;;;;;;5.77;5.33;;;26.60;99.90;;;;;;5093594;28;20752;-71
2023/08/15 08:48:42;;;;;;;5.93;5.47;;;26.80;99.50;;;;;;5096908;28;21177;-71
2023/08/15 08:51:13;;;;;;;5.90;5.33;;;26.90;99.80;;;;;;5096524;28;20644;-71
2023/08/15 08:53:40;;;;;;;5.20;4.80;;;26.80;99.50;;;;;;5096459;28;20629;-71
2023/08/15 08:56:07;;;;;;;5.93;4.97;;;26.90;99.00;;;;;;5092527;28;21038;-71
2023/08/15 08:58:37;;;;;;;5.30;4.80;;;26.80;99.10;;;;;;5100092;28;20624;-71
2023/08/15 09:01:05;;;;;;;5.70;5.20;;;26.80;98.50;;;;;;5079720;28;20636;-71
2023/08/15 09:03:32;;;;;;;5.83;5.33;;;26.90;98.60;;;;;;5096281;28;20629;-71
2023/08/15 09:05:59;;;;;;;5.17;4.77;;;27.00;98.50;;;;;;5098694;28;20641;-71
2023/08/15 09:08:27;;;;;;;5.90;5.40;;;27.00;98.20;;;;;;5094461;28;20641;-71
2023/08/15 09:10:54;;;;;;;5.50;5.10;;;27.10;97.90;;;;;;5085051;28;20665;-71
2023/08/15 09:13:23;;;;;;;5.03;4.63;;;27.20;97.60;;;;;;5089456;28;21185;-71
2023/08/15 09:15:50;;;;;;;5.47;4.93;;;27.30;96.90;;;;;;5088009;28;20672;-71
2023/08/15 09:18:21;;;;;;;3.87;3.47;;;27.40;97.40;;;;;;5097361;28;20624;-71
2023/08/15 09:20:48;;;;;;;3.50;3.27;;;27.30;93.00;;;;;;5082500;28;20643;-71
2023/08/15 09:23:16;;;;;;;3.57;3.23;;;27.20;92.00;;;;;;5096320;28;20624;-71
2023/08/15 09:25:44;;;;;;;7.90;3.47;;;27.10;90.10;;;;;;5088317;28;20637;-71
2023/08/15 09:28:11;;;;;;;3.13;2.77;;;26.90;91.00;;;;;;5096396;28;20627;-71
2023/08/15 09:30:38;;;;;;;2.60;2.40;;;26.80;91.30;;;;;;5095958;28;20756;-71
2023/08/15 09:33:05;;;;;;;4.27;3.73;;;26.90;90.90;;;;;;5088183;28;20627;-71
2023/08/15 09:35:33;;;;;;;3.57;3.27;;;26.90;91.60;;;;;;5104076;28;20731;-71
2023/08/15 09:38:05;;;;;;;11.80;2.30;;;26.90;90.40;;;;;;5087856;28;20622;-71
2023/08/15 09:40:32;;;;;;;3.50;2.90;;;26.80;89.20;;;;;;5086112;28;21205;-71
2023/08/15 09:43:00;;;;;;;2.90;2.40;;;26.80;89.90;;;;;;5087926;28;20621;-71
2023/08/15 09:45:27;;;;;;;2.27;2.03;;;26.90;90.10;;;;;;5095965;28;21071;-71
2023/08/15 09:47:55;;;;;;;4.20;2.70;;;26.90;90.50;;;;;;5094587;28;20618;-71
2023/08/15 09:50:22;;;;;;;3.00;2.77;;;27.00;85.60;;;;;;5086649;28;20645;-71
2023/08/15 09:52:49;;;;;;;2.80;2.57;;;27.00;87.10;;;;;;5089595;28;21157;-71
2023/08/15 09:55:16;;;;;;;4.27;3.10;;;26.90;85.50;;;;;;5088121;28;21181;-71
2023/08/15 09:57:44;;;;;;;3.40;2.47;;;26.80;84.50;;;;;;5090582;28;20621;-71
2023/08/15 10:00:16;;;;;;;3.87;2.70;;;26.80;86.60;;;;;;5092015;28;20830;-71
2023/08/15 10:02:47;;;;;;;3.97;2.70;;;26.90;91.10;;;;;;5101859;28;20877;-71
2023/08/15 10:05:18;;;;;;;2.80;2.60;;;26.90;86.80;;;;;;5097263;28;21204;-71
2023/08/15 10:07:46;;;;;;;7.43;3.10;;;27.00;86.40;;;;;;5103331;28;20735;-71
2023/08/15 10:10:15;;;;;;;2.90;2.50;;;27.20;84.60;;;;;;5092741;28;20655;-71
2023/08/15 10:12:43;;;;;;;2.90;2.70;;;27.20;86.80;;;;;;5091398;28;20631;-71
2023/08/15 10:15:11;;;;;;;3.63;3.20;;;27.10;88.00;;;;;;5099427;28;20627;-71
2023/08/15 10:17:39;;;;;;;4.67;2.83;;;27.00;88.10;;;;;;5099503;28;21172;-72
2023/08/15 10:20:10;;;;;;;3.67;2.93;;;26.90;89.00;;;;;;5090098;28;20728;-72
2023/08/15 10:22:38;;;;;;;4.60;3.00;;;27.00;87.50;;;;;;5098807;28;20654;-72
2023/08/15 10:25:19;;;;;;;4.67;3.30;;;27.00;87.20;;;;;;5091264;28;20708;-72
2023/08/15 10:27:48;;;;;;;4.13;3.73;;;26.90;89.80;;;;;;5102784;28;21027;-73
2023/08/15 10:30:28;;;;;;;4.00;3.47;;;26.80;87.80;;;;;;5092775;28;20769;-72
2023/08/15 10:33:00;;;;;;;2.97;2.73;;;26.90;88.40;;;;;;5103277;28;20619;-72
2023/08/15 10:35:27;;;;;;;3.37;2.70;;;26.90;91.60;;;;;;5093691;28;20645;-72
2023/08/15 10:37:56;;;;;;;4.33;2.93;;;26.80;88.80;;;;;;5102816;28;20623;-72
2023/08/15 10:40:37;;;;;;;2.60;2.40;;;26.80;86.50;;;;;;5089622;28;21880;-72
2023/08/15 10:43:07;;;;;;;2.77;2.57;;;26.80;86.20;;;;;;5099616;28;20617;-72
2023/08/15 10:45:37;;;;;;;2.97;2.67;;;27.00;88.60;;;;;;5100284;28;20654;-72
2023/08/15 10:48:06;;;;;;;3.60;2.70;;;27.10;83.90;;;;;;5096265;28;21097;-72
2023/08/15 10:50:33;;;;;;;3.10;2.90;;;27.30;87.20;;;;;;5092290;28;21009;-72
2023/08/15 10:53:01;;;;;;;3.30;3.00;;;27.40;87.20;;;;;;5098817;28;20628;-73
2023/08/15 10:55:31;;;;;;;2.87;2.50;;;27.50;88.60;;;;;;5099284;28;20648;-72
2023/08/15 10:57:58;;;;;;;2.47;2.27;;;27.60;77.00;;;;;;5082591;28;20647;-72
2023/08/15 11:00:26;;;;;;;2.27;2.10;;;27.70;77.60;;;;;;5089319;28;20641;-72
2023/08/15 11:02:54;;;;;;;2.30;2.10;;;27.70;83.10;;;;;;5091754;28;20612;-73
2023/08/15 11:05:22;;;;;;;2.27;2.10;;;27.60;83.70;;;;;;5089549;28;20620;-73
2023/08/15 11:07:49;;;;;;;2.73;2.23;;;27.50;79.20;;;;;;5087889;28;20724;-71
2023/08/15 11:10:16;;;;;;;2.63;2.40;;;27.40;77.80;;;;;;5088516;28;20653;-72
2023/08/15 11:12:50;;;;;;;1.93;1.83;;;27.20;76.80;;;;;;5088845;28;20795;-71
2023/08/15 11:15:17;;;;;;;6.33;2.10;;;27.20;78.90;;;;;;5084616;28;20634;-71
2023/08/15 11:17:48;;;;;;;2.60;2.37;;;27.20;77.20;;;;;;5094568;28;20992;-71
2023/08/15 11:20:14;;;;;;;2.13;2.00;;;27.20;77.00;;;;;;5090704;28;21183;-71
2023/08/15 11:22:43;;;;;;;2.37;2.00;;;27.20;77.90;;;;;;5093218;28;20673;-71
2023/08/15 11:25:10;;;;;;;2.27;2.07;;;27.20;78.10;;;;;;5104591;28;20620;-71
2023/08/15 11:27:40;;;;;;;2.40;2.20;;;27.60;82.90;;;;;;5091157;28;21197;-71
2023/08/15 11:30:10;;;;;;;3.67;2.63;;;28.10;77.20;;;;;;5094039;28;20657;-71
2023/08/15 11:32:39;;;;;;;2.73;2.43;;;28.60;77.80;;;;;;5086680;28;21185;-71
2023/08/15 11:35:07;;;;;;;3.00;2.80;;;29.20;81.90;;;;;;5089710;28;20629;-71
2023/08/15 11:37:35;;;;;;;5.00;2.80;;;29.50;75.40;;;;;;5092515;28;20621;-71
2023/08/15 11:40:04;;;;;;;4.10;2.40;;;29.70;75.30;;;;;;5091139;28;20617;-71
2023/08/15 11:42:31;;;;;;;4.00;2.60;;;30.20;74.60;;;;;;5099710;28;20751;-71
2023/08/15 11:45:08;;;;;;;2.67;2.47;;;30.40;69.50;;;;;;5094150;28;20627;-71
2023/08/15 11:47:35;;;;;;;2.10;1.87;;;30.80;74.30;;;;;;5097369;28;20623;-72
2023/08/15 11:50:09;;;;;;;2.73;2.00;;;31.20;72.00;;;;;;5088398;28;20695;-71
2023/08/15 11:52:42;;;;;;;2.37;2.17;;;31.50;69.50;;;;;;5091314;28;20624;-71
2023/08/15 11:55:11;;;;;;;3.27;2.97;;;31.60;66.60;;;;;;5096224;28;20624;-72
2023/08/15 11:57:38;;;;;;;2.83;2.63;;;31.70;68.20;;;;;;5098355;28;20667;-71
2023/08/15 12:00:07;;;;;;;2.57;2.47;;;32.00;68.80;;;;;;5090104;28;20616;-71
2023/08/15 12:02:34;;;;;;;2.63;2.43;;;32.60;68.20;;;;;;5089442;28;20625;-72
2023/08/15 12:05:10;;;;;;;2.47;2.33;;;33.50;61.40;;;;;;5091317;28;21217;-72
2023/08/15 12:07:37;;;;;;;2.50;2.30;;;34.00;61.60;;;;;;5100855;28;20659;-72
2023/08/15 12:10:04;;;;;;;2.77;2.57;;;34.70;59.60;;;;;;5099906;28;21340;-72
2023/08/15 12:12:38;;;;;;;4.23;3.07;;;35.10;61.10;;;;;;5094677;28;20968;-72
2023/08/15 12:15:07;;;;;;;2.90;2.70;;;35.60;58.30;;;;;;5095349;28;20604;-72
2023/08/15 12:17:33;;;;;;;3.75;3.13;;;36.20;58.50;;;;;;5089505;28;20601;-72
2023/08/15 12:20:01;;;;;;;3.03;2.80;;;36.60;58.70;;;;;;5087715;28;20196;-72
2023/08/15 12:22:28;;;;;;;3.53;2.58;;;37.00;57.20;;;;;;5096881;28;20226;-72
2023/08/15 12:24:56;;;;;;;3.05;2.70;;;37.40;55.10;;;;;;5088303;28;20268;-72
2023/08/15 12:27:22;;;;;;;3.78;3.47;;;37.60;56.80;;;;;;5091516;28;20228;-73
2023/08/15 12:29:50;;;;;;;3.47;3.28;;;37.70;55.80;;;;;;5088433;28;20193;-72
2023/08/15 12:32:18;;;;;;;3.92;3.65;;;38.00;57.00;;;;;;5088449;28;20218;-72
2023/08/15 12:34:44;;;;;;;3.78;3.58;;;37.40;55.50;;;;;;5088578;28;20198;-73
2023/08/15 12:37:11;;;;;;;4.55;4.05;;;37.60;57.00;;;;;;5097457;28;20225;-72
2023/08/15 12:39:38;;;;;;;4.00;3.55;;;37.50;57.10;;;;;;5086259;28;20194;-72
2023/08/15 12:42:07;;;;;;;3.28;3.08;;;37.90;55.70;;;;;;5093928;28;20223;-72
2023/08/15 12:44:33;;;;;;;4.13;3.83;;;38.20;55.30;;;;;;5088548;28;20645;-73
2023/08/15 12:47:01;;;;;;;3.58;3.28;;;38.50;54.20;;;;;;5092642;28;20305;-72
2023/08/15 12:49:28;;;;;;;3.75;3.42;;;38.20;54.30;;;;;;5087605;28;20247;-73